Time;durP1;ratioP1;P1;durP2;ratioP2;P2;SDS_P1;SDS_P2;PMS_P1;PMS_P2;Temp;Humidity;BMP_temperature;BMP_pressure;BME280_temperature;BME280_humidity;BME280_pressure;Samples;Min_cycle;Max_cycle;Signal;HPM_P1;HPM_P2
2022/12/28 00:00:22;;;;;;;0.10;0.10;;;;;;;;;;5005945;28;20409;-73
2022/12/28 00:02:47;;;;;;;3.67;3.47;;;;;;;;;;4999508;28;20069;-73
2022/12/28 00:05:16;;;;;;;2.75;2.55;;;;;;;;;;5008138;28;20065;-74
2022/12/28 00:07:42;;;;;;;2.53;1.73;;;;;;;;;;5008388;28;20096;-73
2022/12/28 00:10:08;;;;;;;0.63;0.63;;;;;;;;;;5008449;28;20741;-73
2022/12/28 00:12:33;;;;;;;0.50;0.47;;;;;;;;;;5008135;28;20057;-74
2022/12/28 00:14:59;;;;;;;2.15;2.05;;;;;;;;;;5008216;28;20041;-74
2022/12/28 00:17:24;;;;;;;0.20;0.20;;;;;;;;;;5009141;28;20041;-73
2022/12/28 00:19:50;;;;;;;0.82;0.60;;;;;;;;;;5009999;28;20033;-73
2022/12/28 00:22:15;;;;;;;1.30;1.27;;;;;;;;;;5010442;28;20456;-74
2022/12/28 00:24:41;;;;;;;0.38;0.38;;;;;;;;;;4995371;28;20033;-74
2022/12/28 00:27:06;;;;;;;1.95;1.85;;;;;;;;;;5013502;28;20390;-75
2022/12/28 00:29:31;;;;;;;0.30;0.30;;;;;;;;;;5011345;28;20013;-75
2022/12/28 00:31:57;;;;;;;5.03;2.92;;;;;;;;;;4998947;28;20038;-73
2022/12/28 00:34:23;;;;;;;0.25;0.25;;;;;;;;;;4994253;28;20125;-76
2022/12/28 00:36:49;;;;;;;0.95;0.95;;;;;;;;;;5013546;28;20029;-75
2022/12/28 00:39:14;;;;;;;0.85;0.85;;;;;;;;;;5013771;28;20029;-74
2022/12/28 00:41:40;;;;;;;0.40;0.40;;;;;;;;;;5012284;28;20034;-74
2022/12/28 00:44:07;;;;;;;0.73;0.73;;;;;;;;;;5013623;28;20029;-73
2022/12/28 00:46:32;;;;;;;0.43;0.43;;;;;;;;;;5013361;28;20080;-74
2022/12/28 00:48:58;;;;;;;1.27;1.23;;;;;;;;;;5013455;28;20053;-75
2022/12/28 00:51:25;;;;;;;0.73;0.73;;;;;;;;;;5013138;28;20026;-74
2022/12/28 00:53:50;;;;;;;0.30;0.30;;;;;;;;;;4995529;28;20033;-72
2022/12/28 00:56:17;;;;;;;0.85;0.85;;;;;;;;;;5013205;28;20378;-73
2022/12/28 00:58:43;;;;;;;0.55;0.55;;;;;;;;;;5013392;28;20393;-74
2022/12/28 01:01:27;;;;;;;1.55;0.93;;;;;;;;;;4999876;28;20023;-73
2022/12/28 01:03:54;;;;;;;0.17;0.17;;;;;;;;;;4997633;28;20362;-74
2022/12/28 01:06:19;;;;;;;2.20;2.10;;;;;;;;;;5009114;28;20535;-73
2022/12/28 01:08:45;;;;;;;0.50;0.50;;;;;;;;;;5017360;28;20034;-74
2022/12/28 01:11:21;;;;;;;0.30;0.30;;;;;;;;;;4999885;28;20045;-74
2022/12/28 01:13:47;;;;;;;9.85;3.50;;;;;;;;;;5016477;28;20081;-75
2022/12/28 01:16:13;;;;;;;0.10;0.10;;;;;;;;;;5017142;28;20478;-74
2022/12/28 01:18:39;;;;;;;0.10;0.10;;;;;;;;;;4999930;28;20041;-74
2022/12/28 01:21:09;;;;;;;1.95;1.85;;;;;;;;;;5017292;28;20030;-74
2022/12/28 01:23:34;;;;;;;1.65;1.27;;;;;;;;;;5017186;28;20477;-74
2022/12/28 01:26:00;;;;;;;1.95;1.85;;;;;;;;;;4999611;28;20034;-74
2022/12/28 01:28:27;;;;;;;2.13;1.95;;;;;;;;;;4999160;28;20033;-74
2022/12/28 01:30:52;;;;;;;1.60;1.50;;;;;;;;;;5016890;28;20080;-74
2022/12/28 01:33:18;;;;;;;3.42;3.22;;;;;;;;;;4999389;28;20033;-74
2022/12/28 01:35:43;;;;;;;1.02;1.02;;;;;;;;;;5016812;28;20092;-74
2022/12/28 01:38:10;;;;;;;5.78;3.05;;;;;;;;;;4999317;28;20061;-74
2022/12/28 01:40:35;;;;;;;0.20;0.20;;;;;;;;;;5015505;28;20022;-73
2022/12/28 01:43:03;;;;;;;2.33;0.65;;;;;;;;;;5016476;28;20484;-73
2022/12/28 01:45:29;;;;;;;6.65;2.53;;;;;;;;;;5015044;28;20030;-72
2022/12/28 01:47:55;;;;;;;0.82;0.82;;;;;;;;;;5016335;28;20038;-73
2022/12/28 01:50:23;;;;;;;1.48;1.38;;;;;;;;;;4999128;28;20036;-73
2022/12/28 01:52:54;;;;;;;0.25;0.25;;;;;;;;;;5016740;28;20041;-73
2022/12/28 01:55:28;;;;;;;1.95;1.85;;;;;;;;;;4998522;28;20022;-73
2022/12/28 01:57:57;;;;;;;1.58;1.55;;;;;;;;;;5030036;28;20053;-72
2022/12/28 02:00:22;;;;;;;0.17;0.17;;;;;;;;;;5017736;28;20119;-72
2022/12/28 02:02:56;;;;;;;0.70;0.70;;;;;;;;;;5038067;28;20117;-73
2022/12/28 02:05:24;;;;;;;0.10;0.10;;;;;;;;;;5056141;28;20029;-73
2022/12/28 02:08:07;;;;;;;2.55;2.45;;;;;;;;;;5038152;28;20067;-72
2022/12/28 02:10:34;;;;;;;0.30;0.30;;;;;;;;;;5018505;28;20157;-72
2022/12/28 02:13:00;;;;;;;2.78;2.58;;;;;;;;;;5018109;28;20025;-72
2022/12/28 02:15:26;;;;;;;1.35;1.35;;;;;;;;;;5035796;28;20030;-72
2022/12/28 02:17:51;;;;;;;0.38;0.38;;;;;;;;;;5018258;28;20473;-72
2022/12/28 02:20:17;;;;;;;0.20;0.20;;;;;;;;;;5017934;28;20026;-72
2022/12/28 02:22:42;;;;;;;1.70;1.65;;;;;;;;;;5035680;28;20041;-72
2022/12/28 02:25:14;;;;;;;9.48;8.65;;;;;;;;;;5018019;28;20061;-72
2022/12/28 02:27:39;;;;;;;0.60;0.60;;;;;;;;;;5034742;28;20162;-72
2022/12/28 02:30:07;;;;;;;0.70;0.68;;;;;;;;;;5035785;28;20025;-72
2022/12/28 02:32:35;;;;;;;4.80;4.43;;;;;;;;;;5017804;28;20033;-72
2022/12/28 02:35:19;;;;;;;0.30;0.30;;;;;;;;;;5017911;28;20029;-73
2022/12/28 02:38:07;;;;;;;1.17;1.17;;;;;;;;;;5035500;28;20029;-73
2022/12/28 02:40:42;;;;;;;0.28;0.28;;;;;;;;;;5028086;28;20040;-72
2022/12/28 02:43:08;;;;;;;0.25;0.25;;;;;;;;;;5016782;28;20115;-72
2022/12/28 02:51:06;;;;;;;1.80;1.63;;;;;;;;;;5035528;28;20488;-73
2022/12/28 02:53:42;;;;;;;0.85;0.85;;;;;;;;;;5017501;28;20037;-72
2022/12/28 02:56:26;;;;;;;2.53;2.38;;;;;;;;;;5034143;28;20046;-73
2022/12/28 02:59:10;;;;;;;0.20;0.20;;;;;;;;;;5016949;28;20021;-73
2022/12/28 03:01:39;;;;;;;0.63;0.63;;;;;;;;;;5017366;28;20049;-73
2022/12/28 03:04:05;;;;;;;0.25;0.25;;;;;;;;;;5017429;28;20064;-73
2022/12/28 03:09:53;;;;;;;0.30;0.30;;;;;;;;;;5017377;28;20476;-72
2022/12/28 03:12:31;;;;;;;0.52;0.52;;;;;;;;;;5034349;28;20055;-73
2022/12/28 03:15:03;;;;;;;0.10;0.10;;;;;;;;;;5017257;28;20359;-74
2022/12/28 03:31:34;;;;;;;1.25;1.23;;;;;;;;;;5016831;28;20274;-75
2022/12/28 03:34:08;;;;;;;0.32;0.32;;;;;;;;;;5016555;28;20116;-75
2022/12/28 03:36:39;;;;;;;0.30;0.30;;;;;;;;;;5016509;28;20044;-75
2022/12/28 03:39:13;;;;;;;0.35;0.35;;;;;;;;;;5016696;28;20025;-75
2022/12/28 03:44:46;;;;;;;0.40;0.40;;;;;;;;;;5034180;28;20104;-75
2022/12/28 03:47:12;;;;;;;0.50;0.50;;;;;;;;;;5016617;28;20029;-75
2022/12/28 03:49:38;;;;;;;0.10;0.10;;;;;;;;;;5016761;28;20113;-74
2022/12/28 03:52:05;;;;;;;0.10;0.10;;;;;;;;;;5016458;28;20029;-74
2022/12/28 03:54:31;;;;;;;0.40;0.40;;;;;;;;;;5015778;28;20064;-74
2022/12/28 03:56:56;;;;;;;0.13;0.13;;;;;;;;;;5016037;28;20049;-74
2022/12/28 03:59:26;;;;;;;0.52;0.52;;;;;;;;;;5000420;28;20049;-75
2022/12/28 04:01:53;;;;;;;0.13;0.13;;;;;;;;;;5015192;28;20128;-74
2022/12/28 04:04:19;;;;;;;0.52;0.52;;;;;;;;;;5012040;28;20429;-74
2022/12/28 04:06:46;;;;;;;0.17;0.17;;;;;;;;;;5010955;28;20075;-74
2022/12/28 04:09:12;;;;;;;0.13;0.13;;;;;;;;;;5012367;28;20428;-74
2022/12/28 04:11:39;;;;;;;0.10;0.10;;;;;;;;;;5012281;28;20131;-73
2022/12/28 04:14:08;;;;;;;2.05;1.88;;;;;;;;;;5012151;28;20029;-74
2022/12/28 04:16:35;;;;;;;0.10;0.10;;;;;;;;;;5012357;28;20041;-74
2022/12/28 04:19:03;;;;;;;0.50;0.50;;;;;;;;;;5012025;28;20041;-73
2022/12/28 04:21:29;;;;;;;0.52;0.52;;;;;;;;;;5012090;28;20061;-73
2022/12/28 04:23:54;;;;;;;0.10;0.10;;;;;;;;;;5012568;28;20461;-73
2022/12/28 04:26:21;;;;;;;15.80;5.50;;;;;;;;;;5011484;28;20026;-74
2022/12/28 04:28:49;;;;;;;0.47;0.47;;;;;;;;;;5011364;28;20028;-75
2022/12/28 04:31:33;;;;;;;0.20;0.20;;;;;;;;;;5029844;28;20044;-75
2022/12/28 04:34:05;;;;;;;0.80;0.80;;;;;;;;;;5029190;28;20022;-74
2022/12/28 04:36:34;;;;;;;1.23;0.93;;;;;;;;;;5011308;28;20543;-74
2022/12/28 04:39:01;;;;;;;0.22;0.22;;;;;;;;;;5011826;28;20072;-73
2022/12/28 04:41:26;;;;;;;1.52;1.48;;;;;;;;;;5029165;28;20053;-73
2022/12/28 04:43:55;;;;;;;0.10;0.10;;;;;;;;;;5029924;28;20036;-75
2022/12/28 04:46:21;;;;;;;0.20;0.20;;;;;;;;;;5029628;28;20033;-74
2022/12/28 04:48:46;;;;;;;0.25;0.25;;;;;;;;;;5012255;28;20045;-73
2022/12/28 04:51:19;;;;;;;0.43;0.43;;;;;;;;;;5029405;28;20030;-73
2022/12/28 04:53:44;;;;;;;0.20;0.20;;;;;;;;;;5028053;28;20040;-72
2022/12/28 04:56:10;;;;;;;0.90;0.90;;;;;;;;;;5011512;28;20050;-73
2022/12/28 04:58:36;;;;;;;0.10;0.10;;;;;;;;;;5029439;28;20026;-73
2022/12/28 05:01:06;;;;;;;1.95;1.85;;;;;;;;;;5028408;28;20047;-73
2022/12/28 05:03:31;;;;;;;0.35;0.35;;;;;;;;;;5029088;28;20088;-72
2022/12/28 05:06:01;;;;;;;0.90;0.90;;;;;;;;;;5029412;28;20119;-73
2022/12/28 05:08:27;;;;;;;1.40;1.40;;;;;;;;;;5029437;28;20032;-72
2022/12/28 05:10:52;;;;;;;3.60;3.40;;;;;;;;;;5029083;28;20034;-72
2022/12/28 05:13:18;;;;;;;0.57;0.57;;;;;;;;;;5027632;28;20032;-72
2022/12/28 05:15:43;;;;;;;16.55;2.55;;;;;;;;;;5029507;28;20025;-72
2022/12/28 05:18:09;;;;;;;0.68;0.68;;;;;;;;;;5029475;28;20586;-73
2022/12/28 05:20:34;;;;;;;0.20;0.20;;;;;;;;;;5029059;28;20922;-72
2022/12/28 05:22:59;;;;;;;0.10;0.10;;;;;;;;;;5028940;28;20041;-72
2022/12/28 05:25:25;;;;;;;2.25;2.15;;;;;;;;;;5028179;28;20061;-72
2022/12/28 05:27:50;;;;;;;0.50;0.50;;;;;;;;;;5029024;28;20439;-72
2022/12/28 05:30:16;;;;;;;0.20;0.20;;;;;;;;;;5029373;28;20033;-72
2022/12/28 05:32:41;;;;;;;0.10;0.10;;;;;;;;;;5029215;28;20018;-72
2022/12/28 05:35:07;;;;;;;0.20;0.20;;;;;;;;;;5029215;28;20026;-72
2022/12/28 05:37:32;;;;;;;1.58;1.48;;;;;;;;;;5028656;28;20076;-73
2022/12/28 05:39:58;;;;;;;0.32;0.32;;;;;;;;;;5028910;28;20080;-73
2022/12/28 05:42:23;;;;;;;1.85;1.75;;;;;;;;;;5028793;28;20047;-72
2022/12/28 05:44:49;;;;;;;0.30;0.30;;;;;;;;;;5029476;28;20049;-72
2022/12/28 05:47:14;;;;;;;0.50;0.50;;;;;;;;;;5029258;28;20033;-73
2022/12/28 05:49:40;;;;;;;0.47;0.47;;;;;;;;;;5032450;28;20087;-73
2022/12/28 05:52:05;;;;;;;0.10;0.10;;;;;;;;;;5031802;28;20029;-72
2022/12/28 05:54:31;;;;;;;0.22;0.22;;;;;;;;;;5031453;28;20612;-73
2022/12/28 05:56:56;;;;;;;1.55;1.45;;;;;;;;;;5032981;28;20080;-72
2022/12/28 05:59:22;;;;;;;0.20;0.20;;;;;;;;;;5032510;28;20064;-72
2022/12/28 06:01:47;;;;;;;0.35;0.35;;;;;;;;;;5031027;28;20117;-73
2022/12/28 06:04:14;;;;;;;0.10;0.10;;;;;;;;;;5030816;28;20040;-72
2022/12/28 06:06:40;;;;;;;0.15;0.15;;;;;;;;;;5032523;28;20041;-74
2022/12/28 06:09:05;;;;;;;0.30;0.30;;;;;;;;;;5031892;28;20025;-73
2022/12/28 06:11:30;;;;;;;0.30;0.30;;;;;;;;;;5030379;28;20033;-73
2022/12/28 06:13:59;;;;;;;0.20;0.20;;;;;;;;;;5031974;28;20029;-73
2022/12/28 06:16:29;;;;;;;0.10;0.10;;;;;;;;;;5014807;28;20041;-74
2022/12/28 06:18:54;;;;;;;;;;;;;;;;;;5015230;28;20396;-72
2022/12/28 06:21:21;;;;;;;2.35;2.15;;;;;;;;;;5030150;28;20380;-72
2022/12/28 06:23:47;;;;;;;0.50;0.50;;;;;;;;;;5031002;28;20111;-73
2022/12/28 06:26:14;;;;;;;0.40;0.40;;;;;;;;;;5032343;28;20068;-72
2022/12/28 06:28:40;;;;;;;0.20;0.20;;;;;;;;;;5031806;28;20607;-73
2022/12/28 06:31:13;;;;;;;2.25;2.15;;;;;;;;;;5032182;28;20088;-73
2022/12/28 06:33:38;;;;;;;6.72;1.20;;;;;;;;;;5032024;28;20491;-73
2022/12/28 06:36:10;;;;;;;0.10;0.10;;;;;;;;;;5031380;28;20179;-72
2022/12/28 06:38:35;;;;;;;0.47;0.47;;;;;;;;;;5013615;28;21384;-73
2022/12/28 06:41:02;;;;;;;0.75;0.75;;;;;;;;;;5031366;28;20037;-73
2022/12/28 06:43:30;;;;;;;0.20;0.20;;;;;;;;;;5030251;28;20366;-73
2022/12/28 06:45:55;;;;;;;0.10;0.10;;;;;;;;;;5013168;28;20026;-73
2022/12/28 06:48:21;;;;;;;0.90;0.90;;;;;;;;;;5031497;28;20040;-73
2022/12/28 06:50:54;;;;;;;0.40;0.40;;;;;;;;;;5012677;28;20041;-73
2022/12/28 06:53:19;;;;;;;0.25;0.25;;;;;;;;;;5030385;28;20473;-73
2022/12/28 06:55:51;;;;;;;0.30;0.30;;;;;;;;;;5030939;28;20048;-73
2022/12/28 06:58:16;;;;;;;2.40;2.20;;;;;;;;;;5004852;28;20026;-74
2022/12/28 07:00:41;;;;;;;0.22;0.22;;;;;;;;;;5020459;28;20026;-73
2022/12/28 07:03:07;;;;;;;0.10;0.10;;;;;;;;;;5013464;28;20120;-73
2022/12/28 07:05:33;;;;;;;0.22;0.22;;;;;;;;;;5009678;28;20052;-77
2022/12/28 07:07:58;;;;;;;0.20;0.20;;;;;;;;;;5024806;28;20033;-75
2022/12/28 07:10:23;;;;;;;0.32;0.32;;;;;;;;;;5031417;28;20025;-73
2022/12/28 07:12:49;;;;;;;0.10;0.10;;;;;;;;;;5031574;28;20030;-74
2022/12/28 07:15:14;;;;;;;0.40;0.40;;;;;;;;;;5031104;28;20473;-73
2022/12/28 07:17:40;;;;;;;0.25;0.25;;;;;;;;;;5030636;28;20030;-73
2022/12/28 07:20:05;;;;;;;0.47;0.47;;;;;;;;;;5031195;28;20032;-73
2022/12/28 07:22:31;;;;;;;0.10;0.10;;;;;;;;;;5030624;28;20057;-73
2022/12/28 07:24:57;;;;;;;0.30;0.30;;;;;;;;;;5030641;28;20018;-74
2022/12/28 07:27:22;;;;;;;0.10;0.10;;;;;;;;;;5009468;28;20026;-73
2022/12/28 07:29:47;;;;;;;0.10;0.10;;;;;;;;;;5030033;28;20025;-73
2022/12/28 07:32:13;;;;;;;0.20;0.20;;;;;;;;;;5026731;28;20029;-74
2022/12/28 07:34:38;;;;;;;0.10;0.10;;;;;;;;;;5019387;28;20036;-74
2022/12/28 07:37:03;;;;;;;0.10;0.10;;;;;;;;;;5017903;28;20028;-74
2022/12/28 07:39:29;;;;;;;0.90;0.90;;;;;;;;;;5011808;28;20576;-73
2022/12/28 07:41:55;;;;;;;0.10;0.10;;;;;;;;;;5031672;28;20136;-74
2022/12/28 07:44:20;;;;;;;0.17;0.17;;;;;;;;;;5026967;28;20024;-73
2022/12/28 07:46:45;;;;;;;0.10;0.10;;;;;;;;;;5044053;28;20029;-74
2022/12/28 07:49:11;;;;;;;0.63;0.63;;;;;;;;;;5036587;28;20358;-73
2022/12/28 07:51:37;;;;;;;1.67;1.65;;;;;;;;;;5012175;28;20074;-74
2022/12/28 07:54:03;;;;;;;0.10;0.10;;;;;;;;;;5011341;28;20091;-74
2022/12/28 07:56:29;;;;;;;1.63;1.55;;;;;;;;;;5033425;28;20069;-74
2022/12/28 07:58:56;;;;;;;0.10;0.10;;;;;;;;;;5039793;28;20036;-74
2022/12/28 08:01:23;;;;;;;0.30;0.30;;;;;;;;;;5036938;28;20033;-74
2022/12/28 08:03:51;;;;;;;0.10;0.10;;;;;;;;;;5030171;28;20044;-75
2022/12/28 08:06:18;;;;;;;0.10;0.10;;;;;;;;;;5022090;28;20039;-75
2022/12/28 08:08:44;;;;;;;0.20;0.20;;;;;;;;;;5024436;28;20044;-73
2022/12/28 08:11:11;;;;;;;0.20;0.20;;;;;;;;;;5011586;28;20026;-73
2022/12/28 08:13:38;;;;;;;0.28;0.28;;;;;;;;;;5028928;28;20026;-73
2022/12/28 08:16:04;;;;;;;0.38;0.38;;;;;;;;;;5027896;28;20037;-74
2022/12/28 08:18:29;;;;;;;0.65;0.65;;;;;;;;;;5034155;28;20481;-74
2022/12/28 08:20:59;;;;;;;0.15;0.15;;;;;;;;;;5029809;28;20025;-73
2022/12/28 08:23:24;;;;;;;0.55;0.55;;;;;;;;;;5029472;28;20038;-73
2022/12/28 08:25:50;;;;;;;0.17;0.17;;;;;;;;;;5034732;28;20059;-73
2022/12/28 08:28:15;;;;;;;0.40;0.40;;;;;;;;;;5049706;28;20032;-75
2022/12/28 08:30:41;;;;;;;0.80;0.80;;;;;;;;;;5049641;28;20072;-76
2022/12/28 08:33:06;;;;;;;0.35;0.35;;;;;;;;;;5049388;28;20033;-74
2022/12/28 08:35:31;;;;;;;2.63;2.08;;;;;;;;;;5049579;28;20029;-76
2022/12/28 08:37:57;;;;;;;0.10;0.10;;;;;;;;;;5032177;28;20029;-75
2022/12/28 08:40:26;;;;;;;0.20;0.20;;;;;;;;;;5044874;28;20467;-75
2022/12/28 08:42:54;;;;;;;0.10;0.10;;;;;;;;;;5023902;28;20052;-76
2022/12/28 08:45:20;;;;;;;0.13;0.13;;;;;;;;;;5026837;28;20036;-77
2022/12/28 08:47:45;;;;;;;5.30;4.95;;;;;;;;;;5008268;28;20021;-77
2022/12/28 08:50:10;;;;;;;0.13;0.13;;;;;;;;;;5009770;28;20063;-76
2022/12/28 08:52:36;;;;;;;4.50;4.22;;;;;;;;;;5028607;28;20022;-74
2022/12/28 08:55:01;;;;;;;0.20;0.20;;;;;;;;;;5034283;28;20021;-75
2022/12/28 08:57:27;;;;;;;0.20;0.20;;;;;;;;;;5005736;28;20045;-75
2022/12/28 08:59:52;;;;;;;0.30;0.30;;;;;;;;;;5003917;28;20026;-75
2022/12/28 09:02:18;;;;;;;0.20;0.20;;;;;;;;;;4988053;28;20064;-74
2022/12/28 09:04:43;;;;;;;0.20;0.20;;;;;;;;;;5027784;28;20076;-73
2022/12/28 09:07:08;;;;;;;0.30;0.30;;;;;;;;;;5005531;28;20030;-74
2022/12/28 09:09:34;;;;;;;0.20;0.20;;;;;;;;;;5005938;28;20469;-75
2022/12/28 09:11:59;;;;;;;0.20;0.20;;;;;;;;;;4988173;28;20038;-75
2022/12/28 09:14:25;;;;;;;0.40;0.40;;;;;;;;;;4988148;28;20041;-75
2022/12/28 09:16:51;;;;;;;0.90;0.90;;;;;;;;;;5003022;28;20095;-74
2022/12/28 09:19:17;;;;;;;0.30;0.30;;;;;;;;;;4991526;28;20343;-74
2022/12/28 09:21:44;;;;;;;0.20;0.20;;;;;;;;;;4988532;28;20049;-74
2022/12/28 09:24:11;;;;;;;0.10;0.10;;;;;;;;;;4986031;28;20033;-76
2022/12/28 09:26:37;;;;;;;0.57;0.57;;;;;;;;;;5031235;28;20126;-74
2022/12/28 09:29:03;;;;;;;0.95;0.95;;;;;;;;;;5030633;28;20500;-74
2022/12/28 09:31:30;;;;;;;0.30;0.30;;;;;;;;;;4994115;28;20022;-75
2022/12/28 09:34:01;;;;;;;0.60;0.60;;;;;;;;;;5011042;28;20029;-74
2022/12/28 09:36:26;;;;;;;0.15;0.15;;;;;;;;;;5010329;28;20037;-74
2022/12/28 09:38:52;;;;;;;0.22;0.22;;;;;;;;;;5010294;28;20413;-74
2022/12/28 09:41:17;;;;;;;1.38;1.33;;;;;;;;;;5010295;28;20037;-74
2022/12/28 09:43:43;;;;;;;0.40;0.40;;;;;;;;;;5009999;28;20474;-75
2022/12/28 09:46:09;;;;;;;0.20;0.20;;;;;;;;;;5010127;28;20038;-76
2022/12/28 09:48:35;;;;;;;0.50;0.50;;;;;;;;;;4992142;28;20010;-75
2022/12/28 09:51:00;;;;;;;0.20;0.20;;;;;;;;;;4996785;28;20034;-76
2022/12/28 09:53:30;;;;;;;0.30;0.30;;;;;;;;;;4995138;28;20052;-75
2022/12/28 09:55:55;;;;;;;;;;;;;;;;;;4993758;28;20034;-77
2022/12/28 09:58:21;;;;;;;0.40;0.40;;;;;;;;;;5011188;28;19923;-76
2022/12/28 10:00:51;;;;;;;0.28;0.28;;;;;;;;;;5011124;28;20041;-77
2022/12/28 10:03:22;;;;;;;0.20;0.20;;;;;;;;;;5009627;28;20030;-76
2022/12/28 10:05:49;;;;;;;0.63;0.63;;;;;;;;;;5011240;28;20037;-75
2022/12/28 10:08:16;;;;;;;0.20;0.20;;;;;;;;;;5011635;28;20013;-73
2022/12/28 10:10:42;;;;;;;0.22;0.22;;;;;;;;;;5011376;28;20031;-75
2022/12/28 10:13:16;;;;;;;0.43;0.43;;;;;;;;;;5011347;28;20018;-75
2022/12/28 10:15:42;;;;;;;0.20;0.20;;;;;;;;;;5010570;28;20695;-75
2022/12/28 10:18:08;;;;;;;0.20;0.20;;;;;;;;;;5010765;28;20037;-75
2022/12/28 10:20:33;;;;;;;0.20;0.20;;;;;;;;;;4993441;28;20034;-75
2022/12/28 10:22:59;;;;;;;0.25;0.25;;;;;;;;;;4993252;28;20034;-75
2022/12/28 10:25:25;;;;;;;0.50;0.40;;;;;;;;;;5010528;28;20014;-75
2022/12/28 10:27:51;;;;;;;0.30;0.30;;;;;;;;;;5010578;28;20030;-76
2022/12/28 10:30:27;;;;;;;0.55;0.55;;;;;;;;;;5010695;28;20083;-75
2022/12/28 10:32:54;;;;;;;0.60;0.60;;;;;;;;;;4976876;28;20490;-75
2022/12/28 10:35:24;;;;;;;0.30;0.30;;;;;;;;;;5007699;28;20026;-75
2022/12/28 10:37:49;;;;;;;0.28;0.28;;;;;;;;;;5013123;28;20542;-74
2022/12/28 10:40:26;;;;;;;0.70;0.70;;;;;;;;;;5012999;28;20033;-75
2022/12/28 10:42:53;;;;;;;0.20;0.20;;;;;;;;;;5030873;28;20047;-75
2022/12/28 10:45:23;;;;;;;0.40;0.40;;;;;;;;;;5021144;28;20026;-75
2022/12/28 10:47:53;;;;;;;0.20;0.20;;;;;;;;;;4977946;28;20033;-75
2022/12/28 10:50:38;;;;;;;0.60;0.50;;;;;;;;;;5011712;28;20502;-74
2022/12/28 10:53:04;;;;;;;0.43;0.43;;;;;;;;;;5010748;28;20076;-75
2022/12/28 10:55:31;;;;;;;0.20;0.20;;;;;;;;;;5009099;28;20041;-75
2022/12/28 10:58:13;;;;;;;0.38;0.38;;;;;;;;;;4992008;28;20081;-75
2022/12/28 11:00:39;;;;;;;1.08;0.98;;;;;;;;;;4993746;28;20037;-75
2022/12/28 11:03:16;;;;;;;0.10;0.10;;;;;;;;;;5009215;28;20038;-75
2022/12/28 11:05:41;;;;;;;0.30;0.30;;;;;;;;;;5009648;28;20049;-75
2022/12/28 11:08:10;;;;;;;0.20;0.20;;;;;;;;;;5009610;28;20407;-76
2022/12/28 11:10:36;;;;;;;0.20;0.20;;;;;;;;;;4990026;28;20031;-76
2022/12/28 11:13:06;;;;;;;4.57;2.38;;;;;;;;;;4976275;28;20084;-76
2022/12/28 11:15:34;;;;;;;87.85;12.27;;;;;;;;;;5009267;28;20108;-76
2022/12/28 11:18:20;;;;;;;0.20;0.20;;;;;;;;;;5010663;28;20517;-75
2022/12/28 11:20:47;;;;;;;0.32;0.32;;;;;;;;;;5007231;28;20038;-76
2022/12/28 11:23:23;;;;;;;0.30;0.30;;;;;;;;;;5010340;28;20512;-75
2022/12/28 11:25:48;;;;;;;0.28;0.28;;;;;;;;;;5008796;28;20057;-75
2022/12/28 11:28:16;;;;;;;0.85;0.70;;;;;;;;;;5010334;28;20065;-76
2022/12/28 11:30:45;;;;;;;0.30;0.30;;;;;;;;;;5010296;28;20033;-75
2022/12/28 11:33:10;;;;;;;;;;;;;;;;;;4992811;28;20032;-74
2022/12/28 11:35:37;;;;;;;0.97;0.50;;;;;;;;;;5010164;28;20315;-75
2022/12/28 11:38:04;;;;;;;0.20;0.20;;;;;;;;;;5010118;28;20279;-76
2022/12/28 11:40:42;;;;;;;0.30;0.30;;;;;;;;;;5009759;28;20477;-75
2022/12/28 11:43:26;;;;;;;0.57;0.57;;;;;;;;;;5008457;28;20438;-75
2022/12/28 11:45:53;;;;;;;0.22;0.22;;;;;;;;;;5008682;28;20523;-75
2022/12/28 11:48:37;;;;;;;0.20;0.20;;;;;;;;;;5010700;28;20053;-74
2022/12/28 11:51:13;;;;;;;0.20;0.20;;;;;;;;;;5011083;28;20053;-75
2022/12/28 11:53:39;;;;;;;0.20;0.20;;;;;;;;;;5010674;28;20033;-75
2022/12/28 11:56:04;;;;;;;0.30;0.30;;;;;;;;;;5013383;28;20374;-75
2022/12/28 11:58:30;;;;;;;0.30;0.30;;;;;;;;;;5030206;28;20481;-76
2022/12/28 12:00:55;;;;;;;0.98;0.90;;;;;;;;;;5030493;28;20060;-76
2022/12/28 12:03:41;;;;;;;0.43;0.43;;;;;;;;;;5027809;28;20073;-76
2022/12/28 12:06:07;;;;;;;0.38;0.38;;;;;;;;;;5030746;28;20384;-75
2022/12/28 12:08:32;;;;;;;0.20;0.20;;;;;;;;;;5030005;28;20036;-75
2022/12/28 12:11:16;;;;;;;0.30;0.30;;;;;;;;;;5023491;28;20041;-76
2022/12/28 12:13:47;;;;;;;1.27;0.52;;;;;;;;;;5010760;28;20061;-74
2022/12/28 12:16:15;;;;;;;0.30;0.30;;;;;;;;;;5016531;28;20033;-75
2022/12/28 12:18:49;;;;;;;1.63;0.40;;;;;;;;;;5020470;28;20025;-75
2022/12/28 12:21:30;;;;;;;0.77;0.43;;;;;;;;;;5020850;28;20029;-75
2022/12/28 12:24:03;;;;;;;10.95;1.75;;;;;;;;;;5009516;28;20132;-76
2022/12/28 12:26:32;;;;;;;0.35;0.35;;;;;;;;;;5003097;28;20031;-74
2022/12/28 12:29:06;;;;;;;0.20;0.20;;;;;;;;;;5008481;28;20065;-76
2022/12/28 12:31:43;;;;;;;4.90;2.45;;;;;;;;;;5007596;28;20499;-75
2022/12/28 12:34:24;;;;;;;1.75;0.35;;;;;;;;;;5011404;28;20026;-76
2022/12/28 12:37:08;;;;;;;0.32;0.32;;;;;;;;;;5035293;28;20279;-77
2022/12/28 12:39:52;;;;;;;0.38;0.35;;;;;;;;;;5035871;28;20470;-76
2022/12/28 12:42:20;;;;;;;0.40;0.40;;;;;;;;;;5036311;28;20045;-75
2022/12/28 12:44:52;;;;;;;0.30;0.30;;;;;;;;;;5039314;28;20508;-75
2022/12/28 12:47:29;;;;;;;0.20;0.20;;;;;;;;;;5039914;28;20123;-76
2022/12/28 12:50:18;;;;;;;0.20;0.20;;;;;;;;;;5040133;28;20025;-76
2022/12/28 12:52:53;;;;;;;0.20;0.20;;;;;;;;;;5033958;28;20029;-76
2022/12/28 12:55:18;;;;;;;0.25;0.25;;;;;;;;;;5034729;28;20499;-76
2022/12/28 12:57:56;;;;;;;0.40;0.40;;;;;;;;;;5036054;28;20073;-77
2022/12/28 13:00:23;;;;;;;0.30;0.30;;;;;;;;;;5036733;28;20389;-77
2022/12/28 13:02:48;;;;;;;0.20;0.20;;;;;;;;;;5038414;28;20072;-77
2022/12/28 13:05:16;;;;;;;0.60;0.60;;;;;;;;;;5038312;28;20062;-76
2022/12/28 13:07:41;;;;;;;0.30;0.30;;;;;;;;;;5004207;28;20045;-76
2022/12/28 13:10:12;;;;;;;0.20;0.20;;;;;;;;;;5036941;28;20030;-75
2022/12/28 13:12:39;;;;;;;0.32;0.32;;;;;;;;;;5037939;28;20464;-75
2022/12/28 13:15:05;;;;;;;0.30;0.30;;;;;;;;;;5031841;28;20024;-76
2022/12/28 13:17:30;;;;;;;0.30;0.30;;;;;;;;;;5010122;28;20031;-76
2022/12/28 13:20:14;;;;;;;1.33;0.93;;;;;;;;;;5038145;28;20025;-75
2022/12/28 13:22:41;;;;;;;1.05;0.50;;;;;;;;;;5031429;28;20041;-75
2022/12/28 13:25:21;;;;;;;0.38;0.38;;;;;;;;;;5009424;28;20033;-76
2022/12/28 13:27:46;;;;;;;1.75;1.15;;;;;;;;;;5032715;28;20021;-76
2022/12/28 13:30:17;;;;;;;0.20;0.20;;;;;;;;;;5038581;28;20045;-76
2022/12/28 13:32:48;;;;;;;0.20;0.20;;;;;;;;;;5028968;28;20107;-75
2022/12/28 13:35:18;;;;;;;0.50;0.50;;;;;;;;;;5033987;28;20024;-75
2022/12/28 13:37:56;;;;;;;0.30;0.30;;;;;;;;;;5034500;28;20457;-75
2022/12/28 13:40:22;;;;;;;0.77;0.50;;;;;;;;;;5025632;28;20937;-75
2022/12/28 13:42:53;;;;;;;0.30;0.30;;;;;;;;;;5028771;28;20022;-76
2022/12/28 13:45:19;;;;;;;0.20;0.20;;;;;;;;;;5034758;28;20028;-75
2022/12/28 13:47:46;;;;;;;0.20;0.20;;;;;;;;;;5030311;28;20554;-75
2022/12/28 13:50:13;;;;;;;0.30;0.30;;;;;;;;;;5026862;28;20037;-76
2022/12/28 13:52:59;;;;;;;0.50;0.50;;;;;;;;;;5025888;28;20040;-76
2022/12/28 13:55:29;;;;;;;0.30;0.30;;;;;;;;;;4975035;28;20029;-74
2022/12/28 13:57:57;;;;;;;0.28;0.28;;;;;;;;;;5033243;28;20048;-74
2022/12/28 14:00:22;;;;;;;0.20;0.20;;;;;;;;;;5031916;28;20034;-74
2022/12/28 14:02:49;;;;;;;1.58;0.60;;;;;;;;;;5018831;28;20037;-75
2022/12/28 14:05:17;;;;;;;0.50;0.50;;;;;;;;;;5008809;28;20116;-75
2022/12/28 14:07:43;;;;;;;0.20;0.20;;;;;;;;;;5007975;28;20366;-74
2022/12/28 14:10:10;;;;;;;0.57;0.45;;;;;;;;;;5016672;28;20029;-74
2022/12/28 14:12:36;;;;;;;0.25;0.25;;;;;;;;;;4997666;28;20093;-75
2022/12/28 14:15:01;;;;;;;1.75;0.70;;;;;;;;;;5034588;28;20029;-74
2022/12/28 14:17:27;;;;;;;0.63;0.63;;;;;;;;;;5029894;28;20079;-83
2022/12/28 14:19:54;;;;;;;1.88;0.93;;;;;;;;;;5021336;28;20025;-77
2022/12/28 14:22:34;;;;;;;0.20;0.20;;;;;;;;;;5027552;28;20052;-77
2022/12/28 14:25:10;;;;;;;0.22;0.22;;;;;;;;;;5025260;28;20107;-76
2022/12/28 14:27:38;;;;;;;0.60;0.40;;;;;;;;;;5023203;28;20380;-78
2022/12/28 14:30:20;;;;;;;0.30;0.30;;;;;;;;;;5034199;28;20493;-77
2022/12/28 14:32:45;;;;;;;0.65;0.65;;;;;;;;;;5032039;28;20026;-75
2022/12/28 14:35:19;;;;;;;0.73;0.73;;;;;;;;;;5011220;28;20056;-75
2022/12/28 14:37:45;;;;;;;0.30;0.30;;;;;;;;;;5009860;28;20029;-75
2022/12/28 14:40:17;;;;;;;3.00;1.00;;;;;;;;;;5015187;28;20096;-75
2022/12/28 14:42:47;;;;;;;0.20;0.20;;;;;;;;;;5041491;28;20047;-74
2022/12/28 14:45:31;;;;;;;0.20;0.20;;;;;;;;;;5037005;28;20063;-75
2022/12/28 14:47:57;;;;;;;0.20;0.20;;;;;;;;;;5027543;28;20025;-75
2022/12/28 14:50:24;;;;;;;0.30;0.30;;;;;;;;;;4993727;28;20040;-75
2022/12/28 14:53:00;;;;;;;0.20;0.20;;;;;;;;;;5023877;28;20018;-75
2022/12/28 14:55:39;;;;;;;0.20;0.20;;;;;;;;;;5027450;28;20029;-75
2022/12/28 14:58:19;;;;;;;0.75;0.75;;;;;;;;;;4991956;28;20556;-75
2022/12/28 15:00:59;;;;;;;0.25;0.25;;;;;;;;;;4988888;28;20030;-75
2022/12/28 15:03:27;;;;;;;0.40;0.40;;;;;;;;;;4987200;28;20044;-75
2022/12/28 15:06:01;;;;;;;0.40;0.40;;;;;;;;;;5006606;28;20030;-75
2022/12/28 15:08:26;;;;;;;0.20;0.20;;;;;;;;;;4988234;28;20077;-75
2022/12/28 15:10:56;;;;;;;0.20;0.20;;;;;;;;;;5004080;28;20026;-76
2022/12/28 15:13:22;;;;;;;0.20;0.20;;;;;;;;;;5015332;28;20026;-76
2022/12/28 15:16:01;;;;;;;0.50;0.50;;;;;;;;;;5014621;28;20536;-76